sensor_id;sensor_type;location;lat;lon;timestamp;pressure;altitude;pressure_sealevel;temperature;humidity
64139;BME280;50435;43.700;-79.318;2022-08-04T00:01:24;99806.21;;;28.06;40.96
64139;BME280;50435;43.700;-79.318;2022-08-04T00:04:00;99815.92;;;27.51;41.06
64139;BME280;50435;43.700;-79.318;2022-08-04T00:06:37;99824.61;;;28.02;40.91
64139;BME280;50435;43.700;-79.318;2022-08-04T00:09:16;99821.67;;;27.74;41.02
64139;BME280;50435;43.700;-79.318;2022-08-04T00:11:48;99822.89;;;27.44;41.02
64139;BME280;50435;43.700;-79.318;2022-08-04T00:14:20;99833.21;;;27.87;41.09
64139;BME280;50435;43.700;-79.318;2022-08-04T00:16:49;99832.72;;;27.64;41.10
64139;BME280;50435;43.700;-79.318;2022-08-04T00:19:19;99834.84;;;27.92;40.99
64139;BME280;50435;43.700;-79.318;2022-08-04T00:21:55;99836.70;;;27.60;41.10
64139;BME280;50435;43.700;-79.318;2022-08-04T00:24:22;99842.43;;;27.69;41.31
64139;BME280;50435;43.700;-79.318;2022-08-04T00:26:52;99846.09;;;27.42;41.41
64139;BME280;50435;43.700;-79.318;2022-08-04T00:29:21;99851.90;;;27.61;41.44
64139;BME280;50435;43.700;-79.318;2022-08-04T00:31:49;99860.53;;;27.14;41.39
64139;BME280;50435;43.700;-79.318;2022-08-04T00:34:17;99866.12;;;27.57;41.41
64139;BME280;50435;43.700;-79.318;2022-08-04T00:36:45;99876.38;;;27.23;41.63
64139;BME280;50435;43.700;-79.318;2022-08-04T00:39:14;99896.28;;;27.41;41.68
64139;BME280;50435;43.700;-79.318;2022-08-04T00:41:54;99903.40;;;25.95;41.72
64139;BME280;50435;43.700;-79.318;2022-08-04T00:44:35;99900.45;;;27.58;41.70
64139;BME280;50435;43.700;-79.318;2022-08-04T00:47:22;99899.07;;;27.34;41.69
64139;BME280;50435;43.700;-79.318;2022-08-04T00:50:03;99896.13;;;27.29;41.76
64139;BME280;50435;43.700;-79.318;2022-08-04T00:52:40;99911.14;;;27.48;41.78
64139;BME280;50435;43.700;-79.318;2022-08-04T00:55:25;99911.24;;;27.15;41.95
64139;BME280;50435;43.700;-79.318;2022-08-04T00:58:08;99913.31;;;27.31;42.01
64139;BME280;50435;43.700;-79.318;2022-08-04T01:00:48;99905.68;;;26.56;42.16
64139;BME280;50435;43.700;-79.318;2022-08-04T01:03:23;99910.76;;;27.09;42.09
64139;BME280;50435;43.700;-79.318;2022-08-04T01:06:02;99911.95;;;27.06;42.12
64139;BME280;50435;43.700;-79.318;2022-08-04T01:08:48;99903.97;;;27.56;42.11
64139;BME280;50435;43.700;-79.318;2022-08-04T01:11:30;99897.34;;;27.59;42.04
64139;BME280;50435;43.700;-79.318;2022-08-04T01:14:12;99896.36;;;27.09;42.03
64139;BME280;50435;43.700;-79.318;2022-08-04T01:16:48;99893.72;;;26.68;42.36
64139;BME280;50435;43.700;-79.318;2022-08-04T01:19:40;99889.58;;;26.93;42.29
64139;BME280;50435;43.700;-79.318;2022-08-04T01:22:37;99887.66;;;26.94;42.25
64139;BME280;50435;43.700;-79.318;2022-08-04T01:25:30;99883.15;;;27.16;42.21
64139;BME280;50435;43.700;-79.318;2022-08-04T01:28:20;99876.59;;;27.07;42.41
64139;BME280;50435;43.700;-79.318;2022-08-04T01:30:56;99874.96;;;26.76;42.57
64139;BME280;50435;43.700;-79.318;2022-08-04T01:33:28;99874.19;;;27.21;42.58
64139;BME280;50435;43.700;-79.318;2022-08-04T01:36:00;99858.73;;;26.92;42.57
64139;BME280;50435;43.700;-79.318;2022-08-04T01:38:34;99859.53;;;27.13;42.66
64139;BME280;50435;43.700;-79.318;2022-08-04T01:41:04;99860.12;;;27.12;42.61
64139;BME280;50435;43.700;-79.318;2022-08-04T01:43:33;99861.76;;;27.14;42.59
64139;BME280;50435;43.700;-79.318;2022-08-04T01:46:02;99859.38;;;26.71;42.43
64139;BME280;50435;43.700;-79.318;2022-08-04T01:48:30;99855.62;;;27.07;42.59
64139;BME280;50435;43.700;-79.318;2022-08-04T01:51:03;99855.05;;;27.07;42.50
64139;BME280;50435;43.700;-79.318;2022-08-04T01:53:32;99854.55;;;26.95;42.73
64139;BME280;50435;43.700;-79.318;2022-08-04T01:56:02;99849.99;;;26.51;42.60
64139;BME280;50435;43.700;-79.318;2022-08-04T01:58:32;99848.96;;;26.95;42.66
64139;BME280;50435;43.700;-79.318;2022-08-04T02:01:03;99843.74;;;26.35;42.80
64139;BME280;50435;43.700;-79.318;2022-08-04T02:03:32;99839.89;;;26.58;42.73
64139;BME280;50435;43.700;-79.318;2022-08-04T02:06:07;99842.33;;;26.55;42.71
64139;BME280;50435;43.700;-79.318;2022-08-04T02:08:50;99839.89;;;26.72;42.81
64139;BME280;50435;43.700;-79.318;2022-08-04T02:11:21;99841.80;;;26.61;42.93
64139;BME280;50435;43.700;-79.318;2022-08-04T02:13:55;99847.81;;;26.09;42.97
64139;BME280;50435;43.700;-79.318;2022-08-04T02:16:32;99848.38;;;26.62;42.85
64139;BME280;50435;43.700;-79.318;2022-08-04T02:19:13;99846.87;;;26.57;42.91
64139;BME280;50435;43.700;-79.318;2022-08-04T02:21:45;99849.26;;;26.05;42.93
64139;BME280;50435;43.700;-79.318;2022-08-04T02:24:18;99849.52;;;26.45;43.01
64139;BME280;50435;43.700;-79.318;2022-08-04T02:26:49;99848.60;;;26.25;42.88
64139;BME280;50435;43.700;-79.318;2022-08-04T02:29:20;99854.90;;;26.45;42.95
64139;BME280;50435;43.700;-79.318;2022-08-04T02:31:56;99861.10;;;26.42;42.98
64139;BME280;50435;43.700;-79.318;2022-08-04T02:34:28;99868.94;;;26.63;42.98
64139;BME280;50435;43.700;-79.318;2022-08-04T02:36:58;99877.42;;;26.39;42.97
64139;BME280;50435;43.700;-79.318;2022-08-04T02:39:32;99881.68;;;26.57;43.03
64139;BME280;50435;43.700;-79.318;2022-08-04T02:42:02;99892.28;;;26.06;43.00
64139;BME280;50435;43.700;-79.318;2022-08-04T02:44:30;99899.41;;;26.31;43.00
64139;BME280;50435;43.700;-79.318;2022-08-04T02:46:59;99898.51;;;26.27;43.08
64139;BME280;50435;43.700;-79.318;2022-08-04T02:49:28;99900.30;;;26.33;43.00
64139;BME280;50435;43.700;-79.318;2022-08-04T02:51:57;99901.36;;;26.33;43.00
64139;BME280;50435;43.700;-79.318;2022-08-04T02:54:28;99899.38;;;26.42;43.14
64139;BME280;50435;43.700;-79.318;2022-08-04T02:56:59;99902.84;;;26.23;43.11
64139;BME280;50435;43.700;-79.318;2022-08-04T02:59:29;99908.96;;;26.33;43.31
64139;BME280;50435;43.700;-79.318;2022-08-04T03:02:04;99917.98;;;26.36;43.33
64139;BME280;50435;43.700;-79.318;2022-08-04T03:04:43;99913.68;;;26.42;43.21
64139;BME280;50435;43.700;-79.318;2022-08-04T03:08:02;99915.03;;;26.33;43.42
64139;BME280;50435;43.700;-79.318;2022-08-04T03:11:04;99920.23;;;26.02;43.60
64139;BME280;50435;43.700;-79.318;2022-08-04T03:13:46;99926.04;;;25.95;43.85
64139;BME280;50435;43.700;-79.318;2022-08-04T03:18:50;99928.08;;;26.18;44.12
64139;BME280;50435;43.700;-79.318;2022-08-04T03:21:41;99933.03;;;26.17;44.22
64139;BME280;50435;43.700;-79.318;2022-08-04T03:24:32;99926.08;;;25.66;44.27
64139;BME280;50435;43.700;-79.318;2022-08-04T03:27:14;99925.99;;;26.11;44.35
64139;BME280;50435;43.700;-79.318;2022-08-04T03:30:03;99924.51;;;25.76;44.48
64139;BME280;50435;43.700;-79.318;2022-08-04T03:33:49;99921.40;;;25.98;44.53
64139;BME280;50435;43.700;-79.318;2022-08-04T03:37:35;99929.63;;;26.31;44.60
64139;BME280;50435;43.700;-79.318;2022-08-04T03:40:25;99926.40;;;25.86;44.62
64139;BME280;50435;43.700;-79.318;2022-08-04T03:43:25;99918.33;;;25.42;44.92
64139;BME280;50435;43.700;-79.318;2022-08-04T03:46:15;99916.79;;;25.64;45.02
64139;BME280;50435;43.700;-79.318;2022-08-04T03:49:09;99919.22;;;25.13;45.19
64139;BME280;50435;43.700;-79.318;2022-08-04T03:51:54;99915.95;;;25.22;45.06
64139;BME280;50435;43.700;-79.318;2022-08-04T03:54:42;99916.29;;;25.71;44.95
64139;BME280;50435;43.700;-79.318;2022-08-04T03:57:36;99917.23;;;25.37;45.08
64139;BME280;50435;43.700;-79.318;2022-08-04T04:00:13;99916.72;;;24.51;45.42
64139;BME280;50435;43.700;-79.318;2022-08-04T04:03:04;99918.38;;;25.05;45.08
64139;BME280;50435;43.700;-79.318;2022-08-04T04:05:46;99921.47;;;25.03;45.29
64139;BME280;50435;43.700;-79.318;2022-08-04T04:08:30;99923.39;;;25.36;45.15
64139;BME280;50435;43.700;-79.318;2022-08-04T04:11:20;99918.98;;;25.10;45.09
64139;BME280;50435;43.700;-79.318;2022-08-04T04:14:16;99922.80;;;24.95;45.44
64139;BME280;50435;43.700;-79.318;2022-08-04T04:16:56;99938.35;;;25.30;45.78
64139;BME280;50435;43.700;-79.318;2022-08-04T04:19:38;99946.40;;;25.29;45.76
64139;BME280;50435;43.700;-79.318;2022-08-04T04:22:20;99943.94;;;25.26;45.85
64139;BME280;50435;43.700;-79.318;2022-08-04T04:25:04;99946.36;;;24.89;45.91
64139;BME280;50435;43.700;-79.318;2022-08-04T04:27:46;99950.30;;;25.27;45.78
64139;BME280;50435;43.700;-79.318;2022-08-04T04:30:24;99936.64;;;25.26;45.67
64139;BME280;50435;43.700;-79.318;2022-08-04T04:33:06;99929.61;;;25.29;45.55
64139;BME280;50435;43.700;-79.318;2022-08-04T04:35:52;99930.67;;;25.25;45.78
64139;BME280;50435;43.700;-79.318;2022-08-04T04:38:38;99931.84;;;25.11;45.83
64139;BME280;50435;43.700;-79.318;2022-08-04T04:41:23;99933.12;;;25.41;46.33
64139;BME280;50435;43.700;-79.318;2022-08-04T04:46:12;99931.23;;;25.80;46.05
64139;BME280;50435;43.700;-79.318;2022-08-04T04:48:50;99927.14;;;24.90;46.31
64139;BME280;50435;43.700;-79.318;2022-08-04T04:51:24;99922.09;;;25.05;46.14
64139;BME280;50435;43.700;-79.318;2022-08-04T04:54:00;99923.96;;;24.78;46.55
64139;BME280;50435;43.700;-79.318;2022-08-04T04:56:37;99910.40;;;24.83;46.39
64139;BME280;50435;43.700;-79.318;2022-08-04T04:59:10;99901.99;;;25.07;46.41
64139;BME280;50435;43.700;-79.318;2022-08-04T05:01:56;99904.46;;;25.07;46.44
64139;BME280;50435;43.700;-79.318;2022-08-04T05:04:39;99901.23;;;24.80;46.32
64139;BME280;50435;43.700;-79.318;2022-08-04T05:07:27;99913.91;;;24.82;46.22
64139;BME280;50435;43.700;-79.318;2022-08-04T05:10:09;99908.76;;;24.54;46.39
64139;BME280;50435;43.700;-79.318;2022-08-04T05:12:51;99918.73;;;25.18;46.01
64139;BME280;50435;43.700;-79.318;2022-08-04T05:15:23;99922.28;;;25.03;46.91
64139;BME280;50435;43.700;-79.318;2022-08-04T05:17:56;99919.84;;;24.87;45.75
64139;BME280;50435;43.700;-79.318;2022-08-04T05:20:27;99915.21;;;25.07;45.81
64139;BME280;50435;43.700;-79.318;2022-08-04T05:22:59;99914.91;;;24.53;46.53
64139;BME280;50435;43.700;-79.318;2022-08-04T05:25:34;99912.94;;;25.03;46.25
64139;BME280;50435;43.700;-79.318;2022-08-04T05:28:06;99905.06;;;24.59;46.39
64139;BME280;50435;43.700;-79.318;2022-08-04T05:30:38;99912.48;;;25.01;46.16
64139;BME280;50435;43.700;-79.318;2022-08-04T05:33:10;99912.27;;;25.01;46.03
64139;BME280;50435;43.700;-79.318;2022-08-04T05:35:43;99913.32;;;23.97;46.12
64139;BME280;50435;43.700;-79.318;2022-08-04T05:38:14;99909.26;;;25.00;46.09
64139;BME280;50435;43.700;-79.318;2022-08-04T05:40:43;99899.62;;;24.85;46.29
64139;BME280;50435;43.700;-79.318;2022-08-04T05:43:13;99890.40;;;24.78;46.44
64139;BME280;50435;43.700;-79.318;2022-08-04T05:45:41;99885.11;;;24.52;46.64
64139;BME280;50435;43.700;-79.318;2022-08-04T05:48:10;99882.16;;;24.60;46.81
64139;BME280;50435;43.700;-79.318;2022-08-04T05:50:38;99879.49;;;24.55;47.04
64139;BME280;50435;43.700;-79.318;2022-08-04T05:53:05;99875.59;;;24.35;46.72
64139;BME280;50435;43.700;-79.318;2022-08-04T05:55:35;99875.72;;;24.58;46.55
64139;BME280;50435;43.700;-79.318;2022-08-04T05:58:03;99880.59;;;24.33;46.99
64139;BME280;50435;43.700;-79.318;2022-08-04T06:00:30;99880.21;;;24.62;46.87
64139;BME280;50435;43.700;-79.318;2022-08-04T06:03:00;99882.09;;;24.35;46.73
64139;BME280;50435;43.700;-79.318;2022-08-04T06:05:28;99883.87;;;24.40;46.95
64139;BME280;50435;43.700;-79.318;2022-08-04T06:07:56;99878.81;;;24.36;47.19
64139;BME280;50435;43.700;-79.318;2022-08-04T06:10:25;99870.62;;;24.47;46.68
64139;BME280;50435;43.700;-79.318;2022-08-04T06:12:55;99872.54;;;24.47;46.56
64139;BME280;50435;43.700;-79.318;2022-08-04T06:15:25;99870.80;;;24.45;46.48
64139;BME280;50435;43.700;-79.318;2022-08-04T06:17:57;99867.53;;;24.29;46.18
64139;BME280;50435;43.700;-79.318;2022-08-04T06:20:30;99874.26;;;24.60;46.37
64139;BME280;50435;43.700;-79.318;2022-08-04T06:23:03;99871.84;;;24.41;46.50
64139;BME280;50435;43.700;-79.318;2022-08-04T06:25:33;99876.88;;;24.75;46.24
64139;BME280;50435;43.700;-79.318;2022-08-04T06:28:05;99876.84;;;24.41;46.29
64139;BME280;50435;43.700;-79.318;2022-08-04T06:30:35;99875.24;;;24.74;46.13
64139;BME280;50435;43.700;-79.318;2022-08-04T06:33:04;99876.25;;;24.53;46.12
64139;BME280;50435;43.700;-79.318;2022-08-04T06:35:34;99873.66;;;24.75;46.11
64139;BME280;50435;43.700;-79.318;2022-08-04T06:38:02;99873.23;;;24.46;46.23
64139;BME280;50435;43.700;-79.318;2022-08-04T06:40:30;99873.93;;;24.41;46.16
64139;BME280;50435;43.700;-79.318;2022-08-04T06:43:00;99876.86;;;24.66;46.32
64139;BME280;50435;43.700;-79.318;2022-08-04T06:45:29;99877.84;;;24.32;46.15
64139;BME280;50435;43.700;-79.318;2022-08-04T06:47:58;99882.04;;;24.16;46.24
64139;BME280;50435;43.700;-79.318;2022-08-04T06:50:26;99881.74;;;24.65;46.09
64139;BME280;50435;43.700;-79.318;2022-08-04T06:52:54;99886.59;;;24.35;45.98
64139;BME280;50435;43.700;-79.318;2022-08-04T06:55:21;99881.14;;;24.23;46.25
64139;BME280;50435;43.700;-79.318;2022-08-04T06:57:49;99876.16;;;24.13;46.22
64139;BME280;50435;43.700;-79.318;2022-08-04T07:00:16;99874.60;;;24.40;46.05
64139;BME280;50435;43.700;-79.318;2022-08-04T07:02:46;99872.46;;;23.86;46.27
64139;BME280;50435;43.700;-79.318;2022-08-04T07:05:16;99871.00;;;24.37;46.27
64139;BME280;50435;43.700;-79.318;2022-08-04T07:07:44;99876.01;;;24.35;46.24
64139;BME280;50435;43.700;-79.318;2022-08-04T07:10:14;99877.35;;;24.31;46.34
64139;BME280;50435;43.700;-79.318;2022-08-04T07:12:42;99874.25;;;23.34;46.39
64139;BME280;50435;43.700;-79.318;2022-08-04T07:15:12;99873.26;;;24.35;46.24
64139;BME280;50435;43.700;-79.318;2022-08-04T07:17:40;99872.20;;;23.46;46.29
64139;BME280;50435;43.700;-79.318;2022-08-04T07:20:09;99879.05;;;24.23;46.59
64139;BME280;50435;43.700;-79.318;2022-08-04T07:22:37;99879.91;;;24.25;46.50
64139;BME280;50435;43.700;-79.318;2022-08-04T07:25:08;99883.75;;;24.17;46.70
64139;BME280;50435;43.700;-79.318;2022-08-04T07:27:36;99884.77;;;24.56;46.88
64139;BME280;50435;43.700;-79.318;2022-08-04T07:30:05;99884.62;;;24.07;46.86
64139;BME280;50435;43.700;-79.318;2022-08-04T07:32:34;99886.03;;;24.40;46.77
64139;BME280;50435;43.700;-79.318;2022-08-04T07:35:03;99882.28;;;24.25;46.57
64139;BME280;50435;43.700;-79.318;2022-08-04T07:37:32;99887.69;;;24.27;46.56
64139;BME280;50435;43.700;-79.318;2022-08-04T07:40:00;99889.11;;;24.20;46.68
64139;BME280;50435;43.700;-79.318;2022-08-04T07:42:27;99891.75;;;24.22;46.57
64139;BME280;50435;43.700;-79.318;2022-08-04T07:44:54;99883.50;;;24.26;46.55
64139;BME280;50435;43.700;-79.318;2022-08-04T07:47:22;99883.37;;;24.76;46.44
64139;BME280;50435;43.700;-79.318;2022-08-04T07:49:50;99889.87;;;23.97;46.51
64139;BME280;50435;43.700;-79.318;2022-08-04T07:52:18;99891.70;;;24.21;46.45
64139;BME280;50435;43.700;-79.318;2022-08-04T07:54:46;99894.46;;;24.04;46.54
64139;BME280;50435;43.700;-79.318;2022-08-04T07:57:16;99898.51;;;24.24;46.43
64139;BME280;50435;43.700;-79.318;2022-08-04T07:59:43;99889.02;;;23.69;46.56
64139;BME280;50435;43.700;-79.318;2022-08-04T08:02:13;99886.38;;;24.17;46.39
64139;BME280;50435;43.700;-79.318;2022-08-04T08:04:41;99894.84;;;24.76;46.25
64139;BME280;50435;43.700;-79.318;2022-08-04T08:07:11;99893.72;;;24.15;46.46
64139;BME280;50435;43.700;-79.318;2022-08-04T08:09:38;99897.23;;;24.21;46.39
64139;BME280;50435;43.700;-79.318;2022-08-04T08:12:07;99901.71;;;24.48;46.68
64139;BME280;50435;43.700;-79.318;2022-08-04T08:14:35;99908.32;;;24.00;46.65
64139;BME280;50435;43.700;-79.318;2022-08-04T08:17:04;99915.75;;;24.11;46.57
64139;BME280;50435;43.700;-79.318;2022-08-04T08:19:32;99925.78;;;24.38;46.44
64139;BME280;50435;43.700;-79.318;2022-08-04T08:22:00;99921.27;;;24.44;46.50
64139;BME280;50435;43.700;-79.318;2022-08-04T08:24:28;99911.53;;;24.17;46.32
64139;BME280;50435;43.700;-79.318;2022-08-04T08:26:56;99902.00;;;24.18;46.31
64139;BME280;50435;43.700;-79.318;2022-08-04T08:29:25;99903.76;;;24.41;46.35
64139;BME280;50435;43.700;-79.318;2022-08-04T08:31:52;99907.17;;;23.76;46.82
64139;BME280;50435;43.700;-79.318;2022-08-04T08:34:20;99903.66;;;24.01;46.58
64139;BME280;50435;43.700;-79.318;2022-08-04T08:36:56;99904.08;;;23.55;46.66
64139;BME280;50435;43.700;-79.318;2022-08-04T08:39:29;99903.98;;;24.06;46.65
64139;BME280;50435;43.700;-79.318;2022-08-04T08:42:18;99909.10;;;23.88;46.93
64139;BME280;50435;43.700;-79.318;2022-08-04T08:45:26;99906.31;;;23.94;46.95
64139;BME280;50435;43.700;-79.318;2022-08-04T08:48:13;99913.32;;;23.94;46.92
64139;BME280;50435;43.700;-79.318;2022-08-04T08:51:11;99910.51;;;22.92;47.31
64139;BME280;50435;43.700;-79.318;2022-08-04T08:53:58;99911.26;;;23.37;47.34
64139;BME280;50435;43.700;-79.318;2022-08-04T08:56:35;99913.50;;;24.12;47.32
64139;BME280;50435;43.700;-79.318;2022-08-04T08:59:20;99913.69;;;24.00;47.43
64139;BME280;50435;43.700;-79.318;2022-08-04T09:02:09;99917.39;;;23.80;47.27
64139;BME280;50435;43.700;-79.318;2022-08-04T09:04:52;99919.67;;;23.04;47.45
64139;BME280;50435;43.700;-79.318;2022-08-04T09:07:36;99912.73;;;24.01;47.37
64139;BME280;50435;43.700;-79.318;2022-08-04T09:10:17;99919.19;;;23.76;47.46
64139;BME280;50435;43.700;-79.318;2022-08-04T09:12:51;99922.71;;;23.74;47.56
64139;BME280;50435;43.700;-79.318;2022-08-04T09:15:29;99920.48;;;23.81;47.38
64139;BME280;50435;43.700;-79.318;2022-08-04T09:18:04;99919.06;;;23.85;47.18
64139;BME280;50435;43.700;-79.318;2022-08-04T09:20:42;99922.52;;;23.75;47.45
64139;BME280;50435;43.700;-79.318;2022-08-04T09:23:25;99923.22;;;24.23;47.44
64139;BME280;50435;43.700;-79.318;2022-08-04T09:26:00;99925.28;;;23.44;47.66
64139;BME280;50435;43.700;-79.318;2022-08-04T09:28:37;99929.32;;;24.30;47.34
64139;BME280;50435;43.700;-79.318;2022-08-04T09:31:12;99932.22;;;23.76;47.50
64139;BME280;50435;43.700;-79.318;2022-08-04T09:33:48;99936.01;;;23.56;47.57
64139;BME280;50435;43.700;-79.318;2022-08-04T09:36:27;99934.12;;;23.96;47.73
64139;BME280;50435;43.700;-79.318;2022-08-04T09:39:07;99934.87;;;23.94;47.88
64139;BME280;50435;43.700;-79.318;2022-08-04T09:42:00;99941.39;;;23.70;47.78
64139;BME280;50435;43.700;-79.318;2022-08-04T09:44:37;99942.79;;;23.74;47.61
64139;BME280;50435;43.700;-79.318;2022-08-04T09:47:13;99949.58;;;24.00;47.57
64139;BME280;50435;43.700;-79.318;2022-08-04T09:49:51;99952.04;;;23.37;47.47
64139;BME280;50435;43.700;-79.318;2022-08-04T09:52:30;99954.80;;;23.75;47.73
64139;BME280;50435;43.700;-79.318;2022-08-04T09:55:07;99949.67;;;23.78;47.74
64139;BME280;50435;43.700;-79.318;2022-08-04T09:57:47;99944.06;;;24.17;47.47
64139;BME280;50435;43.700;-79.318;2022-08-04T10:00:18;99953.38;;;24.35;47.54
64139;BME280;50435;43.700;-79.318;2022-08-04T10:02:50;99961.03;;;23.40;47.46
64139;BME280;50435;43.700;-79.318;2022-08-04T10:05:21;99959.83;;;23.85;47.46
64139;BME280;50435;43.700;-79.318;2022-08-04T10:08:01;99961.63;;;23.92;47.26
64139;BME280;50435;43.700;-79.318;2022-08-04T10:10:35;99962.22;;;24.12;47.56
64139;BME280;50435;43.700;-79.318;2022-08-04T10:13:20;99966.32;;;23.85;47.55
64139;BME280;50435;43.700;-79.318;2022-08-04T10:16:04;99970.99;;;23.43;47.51
64139;BME280;50435;43.700;-79.318;2022-08-04T10:18:49;99974.35;;;24.20;47.37
64139;BME280;50435;43.700;-79.318;2022-08-04T10:21:29;99977.81;;;24.13;47.54
64139;BME280;50435;43.700;-79.318;2022-08-04T10:24:10;99976.78;;;24.12;47.42
64139;BME280;50435;43.700;-79.318;2022-08-04T10:26:47;99979.25;;;23.10;47.65
64139;BME280;50435;43.700;-79.318;2022-08-04T10:29:23;99981.97;;;24.27;47.62
64139;BME280;50435;43.700;-79.318;2022-08-04T10:31:58;99981.11;;;23.56;47.53
64139;BME280;50435;43.700;-79.318;2022-08-04T10:34:30;99986.09;;;23.84;47.49
64139;BME280;50435;43.700;-79.318;2022-08-04T10:37:05;99990.87;;;23.85;47.40
64139;BME280;50435;43.700;-79.318;2022-08-04T10:39:41;99993.97;;;23.85;47.38
64139;BME280;50435;43.700;-79.318;2022-08-04T10:42:19;100005.05;;;23.99;47.82
64139;BME280;50435;43.700;-79.318;2022-08-04T10:44:58;100007.81;;;23.48;47.84
64139;BME280;50435;43.700;-79.318;2022-08-04T10:47:34;100007.76;;;24.04;47.74
64139;BME280;50435;43.700;-79.318;2022-08-04T10:50:05;99996.69;;;23.79;47.79
64139;BME280;50435;43.700;-79.318;2022-08-04T10:52:41;99999.29;;;23.90;47.40
64139;BME280;50435;43.700;-79.318;2022-08-04T10:55:14;100004.90;;;23.87;47.60
64139;BME280;50435;43.700;-79.318;2022-08-04T10:57:47;100015.63;;;22.86;47.89
64139;BME280;50435;43.700;-79.318;2022-08-04T11:00:22;100017.58;;;23.76;47.93
64139;BME280;50435;43.700;-79.318;2022-08-04T11:02:54;100019.37;;;23.72;48.12
64139;BME280;50435;43.700;-79.318;2022-08-04T11:05:29;100020.48;;;24.28;48.15
64139;BME280;50435;43.700;-79.318;2022-08-04T11:08:02;100024.11;;;24.06;48.09
64139;BME280;50435;43.700;-79.318;2022-08-04T11:10:36;100019.52;;;23.81;48.05
64139;BME280;50435;43.700;-79.318;2022-08-04T11:13:10;100022.60;;;24.01;48.29
64139;BME280;50435;43.700;-79.318;2022-08-04T11:15:45;100021.17;;;23.33;48.20
64139;BME280;50435;43.700;-79.318;2022-08-04T11:18:21;100021.70;;;24.07;48.23
64139;BME280;50435;43.700;-79.318;2022-08-04T11:20:54;100026.78;;;23.84;48.20
64139;BME280;50435;43.700;-79.318;2022-08-04T11:23:27;100028.09;;;23.87;48.09
64139;BME280;50435;43.700;-79.318;2022-08-04T11:25:59;100032.83;;;23.84;48.14
64139;BME280;50435;43.700;-79.318;2022-08-04T11:28:45;100033.97;;;23.82;48.39
64139;BME280;50435;43.700;-79.318;2022-08-04T11:31:20;100032.32;;;24.06;48.50
64139;BME280;50435;43.700;-79.318;2022-08-04T11:34:02;100029.92;;;23.38;48.69
64139;BME280;50435;43.700;-79.318;2022-08-04T11:36:36;100027.16;;;24.09;48.63
64139;BME280;50435;43.700;-79.318;2022-08-04T11:39:07;100035.64;;;23.83;48.55
64139;BME280;50435;43.700;-79.318;2022-08-04T11:41:47;100037.44;;;23.87;48.41
64139;BME280;50435;43.700;-79.318;2022-08-04T11:44:25;100033.65;;;23.90;48.27
64139;BME280;50435;43.700;-79.318;2022-08-04T11:46:59;100032.24;;;23.86;48.56
64139;BME280;50435;43.700;-79.318;2022-08-04T11:49:33;100036.34;;;23.84;48.79
64139;BME280;50435;43.700;-79.318;2022-08-04T11:52:02;100042.60;;;24.16;48.52
64139;BME280;50435;43.700;-79.318;2022-08-04T11:54:32;100042.61;;;24.01;48.11
64139;BME280;50435;43.700;-79.318;2022-08-04T11:57:01;100042.13;;;24.04;47.92
64139;BME280;50435;43.700;-79.318;2022-08-04T11:59:29;100035.91;;;24.47;48.08
64139;BME280;50435;43.700;-79.318;2022-08-04T12:02:11;100041.45;;;23.88;47.58
64139;BME280;50435;43.700;-79.318;2022-08-04T12:04:53;100036.25;;;23.41;47.82
64139;BME280;50435;43.700;-79.318;2022-08-04T12:07:32;100039.69;;;24.22;47.20
64139;BME280;50435;43.700;-79.318;2022-08-04T12:10:13;100043.10;;;24.21;48.37
64139;BME280;50435;43.700;-79.318;2022-08-04T12:12:49;100043.82;;;22.97;49.52
64139;BME280;50435;43.700;-79.318;2022-08-04T12:15:25;100044.09;;;24.41;50.58
64139;BME280;50435;43.700;-79.318;2022-08-04T12:18:02;100047.29;;;24.53;50.63
64139;BME280;50435;43.700;-79.318;2022-08-04T12:20:40;100044.87;;;24.59;50.83
64139;BME280;50435;43.700;-79.318;2022-08-04T12:23:16;100045.05;;;24.29;50.85
64139;BME280;50435;43.700;-79.318;2022-08-04T12:25:47;100046.35;;;23.82;50.64
64139;BME280;50435;43.700;-79.318;2022-08-04T12:28:21;100045.30;;;24.38;50.73
64139;BME280;50435;43.700;-79.318;2022-08-04T12:30:57;100044.69;;;24.42;50.96
64139;BME280;50435;43.700;-79.318;2022-08-04T12:33:33;100049.40;;;24.89;51.18
64139;BME280;50435;43.700;-79.318;2022-08-04T12:36:14;100049.42;;;24.57;50.56
64139;BME280;50435;43.700;-79.318;2022-08-04T12:38:51;100050.24;;;23.64;50.64
64139;BME280;50435;43.700;-79.318;2022-08-04T12:41:29;100050.84;;;25.19;50.69
64139;BME280;50435;43.700;-79.318;2022-08-04T12:44:05;100047.54;;;24.72;50.87
64139;BME280;50435;43.700;-79.318;2022-08-04T12:46:33;100049.53;;;25.01;50.72
64139;BME280;50435;43.700;-79.318;2022-08-04T12:49:02;100050.66;;;24.92;50.72
64139;BME280;50435;43.700;-79.318;2022-08-04T12:51:38;100057.71;;;25.03;51.03
64139;BME280;50435;43.700;-79.318;2022-08-04T12:54:07;100058.91;;;25.02;51.07
64139;BME280;50435;43.700;-79.318;2022-08-04T12:56:36;100061.37;;;24.84;50.96
64139;BME280;50435;43.700;-79.318;2022-08-04T12:59:07;100064.27;;;25.27;51.08
64139;BME280;50435;43.700;-79.318;2022-08-04T13:01:35;100064.10;;;25.68;50.37
64139;BME280;50435;43.700;-79.318;2022-08-04T13:04:11;100062.13;;;25.29;50.81
64139;BME280;50435;43.700;-79.318;2022-08-04T13:06:38;100062.45;;;24.94;50.85
64139;BME280;50435;43.700;-79.318;2022-08-04T13:09:10;100065.08;;;25.51;50.47
64139;BME280;50435;43.700;-79.318;2022-08-04T13:11:40;100067.18;;;25.16;50.40
64139;BME280;50435;43.700;-79.318;2022-08-04T13:14:11;100068.85;;;25.79;50.08
64139;BME280;50435;43.700;-79.318;2022-08-04T13:16:40;100072.42;;;24.99;50.21
64139;BME280;50435;43.700;-79.318;2022-08-04T13:19:08;100069.18;;;25.51;50.07
64139;BME280;50435;43.700;-79.318;2022-08-04T13:21:41;100069.33;;;25.78;50.18
64139;BME280;50435;43.700;-79.318;2022-08-04T13:24:11;100077.58;;;25.54;50.26
64139;BME280;50435;43.700;-79.318;2022-08-04T13:26:48;100079.11;;;24.92;49.99